createdAt,value
2022-12-18T00:01:07.360Z,101532.53
2022-12-18T00:03:34.980Z,101537.31
2022-12-18T00:06:02.299Z,101531.56
2022-12-18T00:08:29.424Z,101528.88
2022-12-18T00:10:59.723Z,101528.13
2022-12-18T00:13:28.465Z,101529.84
2022-12-18T00:15:56.619Z,101530.72
2022-12-18T00:18:23.507Z,101535.88
2022-12-18T00:20:50.262Z,101529.94
2022-12-18T00:23:17.006Z,101529.34
2022-12-18T00:25:43.740Z,101536.69
2022-12-18T00:28:10.505Z,101537.06
2022-12-18T00:30:37.220Z,101534.66
2022-12-18T00:33:03.957Z,101545.75
2022-12-18T00:35:30.839Z,101546.22
2022-12-18T00:37:57.612Z,101534.09
2022-12-18T00:40:24.243Z,101531.00
2022-12-18T00:42:57.004Z,101523.19
2022-12-18T00:45:31.820Z,101536.97
2022-12-18T00:47:58.921Z,101532.06
2022-12-18T00:50:26.117Z,101531.63
2022-12-18T00:52:53.216Z,101528.53
2022-12-18T00:55:20.241Z,101516.63
2022-12-18T00:57:46.845Z,101509.97
2022-12-18T01:00:16.223Z,101505.09
2022-12-18T01:02:43.442Z,101511.88
2022-12-18T01:05:12.360Z,101501.06
2022-12-18T01:07:39.564Z,101496.75
2022-12-18T01:10:07.936Z,101499.66
2022-12-18T01:12:34.545Z,101495.22
2022-12-18T01:15:02.702Z,101494.28
2022-12-18T01:17:29.549Z,101501.13
2022-12-18T01:19:56.270Z,101490.91
2022-12-18T01:22:23.098Z,101490.41
2022-12-18T01:24:49.991Z,101482.84
2022-12-18T01:27:16.730Z,101479.09
2022-12-18T01:29:43.727Z,101473.50
2022-12-18T01:32:10.549Z,101474.25
2022-12-18T01:34:38.224Z,101475.75
2022-12-18T01:37:06.154Z,101466.50
2022-12-18T01:39:33.620Z,101461.84
2022-12-18T01:42:03.936Z,101456.28
2022-12-18T01:45:03.398Z,101450.13
2022-12-18T01:47:39.137Z,101437.16
2022-12-18T01:50:14.236Z,101422.31
2022-12-18T01:52:47.857Z,101413.81
2022-12-18T01:55:17.611Z,101408.00
2022-12-18T01:57:44.722Z,101409.06
2022-12-18T02:00:18.320Z,101416.19
2022-12-18T02:02:46.664Z,101398.97
2022-12-18T02:05:20.577Z,101387.22
2022-12-18T02:07:55.461Z,101379.81
2022-12-18T02:11:18.515Z,101365.53
2022-12-18T02:13:51.784Z,101369.59
2022-12-18T02:16:35.953Z,101369.47
2022-12-18T02:19:21.964Z,101380.00
2022-12-18T02:21:58.766Z,101382.59
2022-12-18T02:24:43.129Z,101386.66
2022-12-18T02:27:11.838Z,101389.88
2022-12-18T02:29:45.119Z,101386.97
2022-12-18T02:32:17.191Z,101380.28
2022-12-18T02:34:45.523Z,101374.34
2022-12-18T02:38:12.185Z,101365.06
2022-12-18T02:45:22.663Z,101353.16
2022-12-18T02:48:49.073Z,101362.25
2022-12-18T02:55:32.731Z,101345.56
2022-12-18T02:58:25.435Z,101343.50
2022-12-18T03:01:54.871Z,101339.84
2022-12-18T03:08:58.652Z,101312.34
2022-12-18T03:11:47.469Z,101307.09
2022-12-18T03:14:17.938Z,101282.59
2022-12-18T03:16:46.606Z,101294.22
2022-12-18T03:19:18.193Z,101268.88
2022-12-18T03:21:48.440Z,101261.66
2022-12-18T03:24:18.124Z,101255.41
2022-12-18T03:26:47.601Z,101243.66
2022-12-18T03:29:19.681Z,101223.94
2022-12-18T03:31:53.069Z,101209.47
2022-12-18T03:34:26.062Z,101218.03
2022-12-18T03:36:52.589Z,101223.19
2022-12-18T03:39:20.987Z,101214.25
2022-12-18T03:42:06.636Z,101205.91
2022-12-18T03:44:41.681Z,101227.34
2022-12-18T03:47:22.063Z,101226.63
2022-12-18T03:49:54.376Z,101219.50
2022-12-18T03:52:46.639Z,101214.13
2022-12-18T03:55:13.901Z,101232.97
2022-12-18T03:57:42.764Z,101225.66
2022-12-18T04:00:13.899Z,101234.31
2022-12-18T04:02:45.863Z,101215.06
2022-12-18T04:05:14.752Z,101212.03
2022-12-18T04:07:42.267Z,101203.81
2022-12-18T04:10:10.839Z,101205.53
2022-12-18T04:12:38.719Z,101199.13
2022-12-18T04:15:06.906Z,101207.97
2022-12-18T04:17:33.621Z,101201.59
2022-12-18T04:20:00.349Z,101203.91
2022-12-18T04:22:28.191Z,101203.78
2022-12-18T04:24:54.939Z,101201.06
2022-12-18T04:27:22.190Z,101187.47
2022-12-18T04:29:48.922Z,101188.31
2022-12-18T04:32:15.758Z,101189.91
2022-12-18T04:34:42.397Z,101183.53
2022-12-18T04:37:09.341Z,101169.19
2022-12-18T04:39:36.841Z,101159.13
2022-12-18T04:42:03.843Z,101152.88
2022-12-18T04:44:30.496Z,101149.31
2022-12-18T04:46:57.148Z,101150.06
2022-12-18T04:49:24.147Z,101136.44
2022-12-18T04:51:50.833Z,101141.72
2022-12-18T04:54:17.579Z,101130.78
2022-12-18T04:56:44.492Z,101127.72
2022-12-18T04:59:11.227Z,101112.25
2022-12-18T05:01:38.000Z,101116.53
2022-12-18T05:04:05.133Z,101109.03
2022-12-18T05:06:31.905Z,101107.91
2022-12-18T05:08:59.211Z,101097.84
2022-12-18T05:11:25.981Z,101093.31
2022-12-18T05:13:52.731Z,101089.63
2022-12-18T05:16:19.463Z,101088.66
2022-12-18T05:18:46.282Z,101071.59
2022-12-18T05:21:12.992Z,101067.91
2022-12-18T05:23:40.031Z,101050.88
2022-12-18T05:26:08.913Z,101035.53
2022-12-18T05:28:37.092Z,101022.66
2022-12-18T05:31:05.882Z,101019.94
2022-12-18T05:33:34.871Z,101019.94
2022-12-18T05:36:03.151Z,101011.97
2022-12-18T05:38:31.153Z,100993.22
2022-12-18T05:40:58.299Z,101015.06
2022-12-18T05:43:26.601Z,100993.47
2022-12-18T05:45:54.436Z,100991.66
2022-12-18T05:48:22.529Z,100997.06
2022-12-18T05:50:50.442Z,100996.03
2022-12-18T05:53:20.472Z,100984.41
2022-12-18T05:55:47.917Z,100989.81
2022-12-18T05:58:15.480Z,100996.19
2022-12-18T06:00:46.854Z,100997.63
2022-12-18T06:03:14.736Z,100995.66
2022-12-18T06:05:45.031Z,100994.66
2022-12-18T06:08:12.724Z,101003.75
2022-12-18T06:10:39.776Z,101000.19
2022-12-18T06:13:07.255Z,100989.25
2022-12-18T06:15:34.254Z,100982.03
2022-12-18T06:18:03.148Z,100969.38
2022-12-18T06:20:33.598Z,100970.13
2022-12-18T06:23:00.988Z,100963.84
2022-12-18T06:25:27.787Z,100961.00
2022-12-18T06:27:54.509Z,100961.00
2022-12-18T06:30:21.677Z,100948.41
2022-12-18T06:32:53.130Z,100943.13
2022-12-18T06:35:21.570Z,100933.31
2022-12-18T06:37:49.028Z,100935.28
2022-12-18T06:40:15.753Z,100925.63
2022-12-18T06:42:42.397Z,100923.06
2022-12-18T06:45:09.640Z,100907.16
2022-12-18T06:47:36.255Z,100902.03
2022-12-18T06:50:03.250Z,100879.72
2022-12-18T06:52:29.980Z,100894.34
2022-12-18T06:54:56.888Z,100886.41
2022-12-18T06:57:23.550Z,100892.03
2022-12-18T06:59:50.496Z,100872.59
2022-12-18T07:02:17.745Z,100875.53
2022-12-18T07:04:44.458Z,100863.59
2022-12-18T07:07:11.091Z,100871.53
2022-12-18T07:09:38.057Z,100873.81
2022-12-18T07:12:05.986Z,100864.84
2022-12-18T07:14:35.045Z,100859.59
2022-12-18T07:17:02.683Z,100865.13
2022-12-18T07:19:30.742Z,100857.91
2022-12-18T07:21:57.935Z,100856.19
2022-12-18T07:24:24.706Z,100845.28
2022-12-18T07:26:51.392Z,100827.09
2022-12-18T07:29:18.138Z,100820.88
2022-12-18T07:31:45.460Z,100809.09
2022-12-18T07:34:13.948Z,100794.75
2022-12-18T07:36:40.689Z,100782.84
2022-12-18T07:39:07.403Z,100795.06
2022-12-18T07:41:34.201Z,100781.03
2022-12-18T07:44:00.874Z,100770.94
2022-12-18T07:46:27.628Z,100752.91
2022-12-18T07:48:56.711Z,100740.00
2022-12-18T07:51:23.424Z,100739.03
2022-12-18T07:53:52.528Z,100722.56
2022-12-18T07:56:29.136Z,100723.25
2022-12-18T07:58:57.958Z,100715.06
2022-12-18T08:01:24.848Z,100709.53
2022-12-18T08:03:52.290Z,100704.28
2022-12-18T08:06:19.552Z,100682.53
2022-12-18T08:08:49.519Z,100690.50
2022-12-18T08:11:16.855Z,100706.69
2022-12-18T08:13:43.812Z,100681.66
2022-12-18T08:16:10.824Z,100687.94
2022-12-18T08:18:38.771Z,100677.16
2022-12-18T08:21:16.816Z,100651.00
2022-12-18T08:23:44.108Z,100646.47
2022-12-18T08:26:12.214Z,100656.41
2022-12-18T08:28:39.608Z,100654.84
2022-12-18T08:31:06.377Z,100646.06
2022-12-18T08:33:33.805Z,100652.44
2022-12-18T08:36:03.102Z,100637.22
2022-12-18T08:38:29.842Z,100619.22
2022-12-18T08:41:04.786Z,100617.50
2022-12-18T08:43:50.204Z,100604.03
2022-12-18T08:46:17.973Z,100614.66
2022-12-18T08:48:44.832Z,100598.47
2022-12-18T08:51:11.898Z,100607.41
2022-12-18T08:53:39.420Z,100599.47
2022-12-18T08:56:06.832Z,100589.41
2022-12-18T08:58:33.477Z,100591.97
2022-12-18T09:01:05.129Z,100590.09
2022-12-18T09:03:32.118Z,100596.22
2022-12-18T09:05:58.794Z,100587.97
2022-12-18T09:08:25.802Z,100586.13
2022-12-18T09:10:52.784Z,100585.97
2022-12-18T09:13:20.236Z,100588.53
2022-12-18T09:15:54.539Z,100593.09
2022-12-18T09:18:23.363Z,100584.00
2022-12-18T09:20:52.841Z,100597.50
2022-12-18T09:23:19.723Z,100587.53
2022-12-18T09:25:46.326Z,100582.00
2022-12-18T09:28:15.722Z,100551.34
2022-12-18T09:30:44.912Z,100544.22
2022-12-18T09:33:12.046Z,100536.13
2022-12-18T09:35:40.050Z,100520.81
2022-12-18T09:38:07.678Z,100503.63
2022-12-18T09:40:41.017Z,100490.28
2022-12-18T09:43:13.568Z,100485.44
2022-12-18T09:45:45.713Z,100479.75
2022-12-18T09:48:21.977Z,100485.84
2022-12-18T09:50:51.247Z,100477.47
2022-12-18T09:53:22.672Z,100484.44
2022-12-18T09:55:49.940Z,100465.38
2022-12-18T09:58:43.478Z,100458.97
2022-12-18T10:01:23.803Z,100454.28
2022-12-18T10:03:51.720Z,100449.72
2022-12-18T10:06:46.953Z,100463.94
2022-12-18T10:09:38.437Z,100461.41
2022-12-18T10:12:22.349Z,100467.47
2022-12-18T10:14:57.125Z,100433.38
2022-12-18T10:18:17.413Z,100453.00
2022-12-18T10:20:51.395Z,100442.19
2022-12-18T10:23:29.879Z,100424.00
2022-12-18T10:26:08.105Z,100416.63
2022-12-18T10:28:38.934Z,100411.91
2022-12-18T10:31:21.098Z,100408.06
2022-12-18T10:33:51.393Z,100414.16
2022-12-18T10:36:18.008Z,100405.75
2022-12-18T10:38:44.936Z,100400.06
2022-12-18T10:41:23.109Z,100401.44
2022-12-18T10:44:11.321Z,100398.59
2022-12-18T10:46:38.363Z,100404.72
2022-12-18T10:49:05.909Z,100420.59
2022-12-18T10:51:38.688Z,100397.97
2022-12-18T10:54:17.817Z,100397.69
2022-12-18T10:56:45.416Z,100392.97
2022-12-18T11:00:12.775Z,100381.19
2022-12-18T11:07:34.558Z,100379.16
2022-12-18T11:10:02.688Z,100370.06
2022-12-18T11:12:30.175Z,100360.13
2022-12-18T11:14:57.683Z,100352.72
2022-12-18T11:17:33.306Z,100354.28
2022-12-18T11:20:10.390Z,100342.47
2022-12-18T11:22:39.266Z,100324.25
2022-12-18T11:25:35.897Z,100312.13
2022-12-18T11:28:26.972Z,100303.88
2022-12-18T11:31:29.381Z,100297.97
2022-12-18T11:34:28.718Z,100284.88
2022-12-18T11:36:58.853Z,100284.53
2022-12-18T11:39:43.744Z,100284.28
2022-12-18T11:42:42.573Z,100270.78
2022-12-18T11:45:12.131Z,100264.19
2022-12-18T11:47:45.589Z,100251.38
2022-12-18T11:50:26.550Z,100248.34
2022-12-18T11:52:58.198Z,100244.50
2022-12-18T11:55:42.983Z,100232.38
2022-12-18T11:58:31.141Z,100220.38
2022-12-18T12:01:19.414Z,100214.50
2022-12-18T12:04:13.542Z,100202.34
2022-12-18T12:06:49.949Z,100199.00
2022-12-18T12:09:35.793Z,100187.72
2022-12-18T12:12:48.680Z,100186.22
2022-12-18T12:15:28.211Z,100179.47
2022-12-18T12:18:26.242Z,100177.44
2022-12-18T12:21:34.138Z,100164.28
2022-12-18T12:24:12.626Z,100163.97
2022-12-18T12:27:13.698Z,100155.34
2022-12-18T12:29:48.697Z,100156.72
2022-12-18T12:32:33.555Z,100155.53
2022-12-18T12:35:34.125Z,100134.59
2022-12-18T12:38:34.861Z,100123.28
2022-12-18T12:41:34.006Z,100121.75
2022-12-18T12:44:06.455Z,100098.44
2022-12-18T12:46:35.134Z,100090.84
2022-12-18T12:49:11.033Z,100066.50
2022-12-18T12:51:41.981Z,100065.97
2022-12-18T12:54:25.914Z,100057.84
2022-12-18T12:57:01.724Z,100054.81
2022-12-18T12:59:36.564Z,100046.84
2022-12-18T13:02:34.281Z,100048.72
2022-12-18T13:05:16.059Z,100035.00
2022-12-18T13:07:52.813Z,100022.63
2022-12-18T13:10:25.625Z,100025.00
2022-12-18T13:12:59.498Z,100024.47
2022-12-18T13:15:35.872Z,100015.16
2022-12-18T13:18:11.226Z,100012.28
2022-12-18T13:20:52.420Z,100005.84
2022-12-18T13:23:25.029Z,99989.06
2022-12-18T13:25:52.311Z,99996.19
2022-12-18T13:28:34.878Z,99994.47
2022-12-18T13:31:02.963Z,99990.75
2022-12-18T13:33:29.793Z,99976.88
2022-12-18T13:36:10.420Z,99973.16
2022-12-18T13:38:38.933Z,99969.06
2022-12-18T13:41:23.957Z,99952.63
2022-12-18T13:43:52.530Z,99953.13
2022-12-18T13:46:38.341Z,99944.66
2022-12-18T13:49:14.285Z,99932.94
2022-12-18T13:51:45.241Z,99933.81
2022-12-18T13:54:25.278Z,99938.38
2022-12-18T13:56:52.303Z,99939.22
2022-12-18T13:59:27.368Z,99940.94
2022-12-18T14:02:02.782Z,99935.50
2022-12-18T14:04:36.617Z,99925.50
2022-12-18T14:07:07.332Z,99911.78
2022-12-18T14:09:47.293Z,99904.66
2022-12-18T14:12:43.566Z,99901.78
2022-12-18T14:15:26.894Z,99890.94
2022-12-18T14:17:58.283Z,99875.56
2022-12-18T14:20:33.772Z,99873.50
2022-12-18T14:23:04.243Z,99877.06
2022-12-18T14:25:32.085Z,99891.09
2022-12-18T14:28:11.192Z,99872.78
2022-12-18T14:30:46.951Z,99878.03
2022-12-18T14:33:25.871Z,99873.44
2022-12-18T14:36:01.712Z,99866.66
2022-12-18T14:38:35.797Z,99872.75
2022-12-18T14:41:05.434Z,99865.25
2022-12-18T14:43:37.660Z,99845.28
2022-12-18T14:46:07.234Z,99838.84
2022-12-18T14:48:42.704Z,99834.06
2022-12-18T14:51:19.615Z,99827.63
2022-12-18T14:53:55.828Z,99827.63
2022-12-18T14:56:31.489Z,99827.06
2022-12-18T14:59:01.256Z,99808.94
2022-12-18T15:01:54.177Z,99812.50
2022-12-18T15:04:33.262Z,99809.63
2022-12-18T15:07:12.332Z,99797.38
2022-12-18T15:09:41.810Z,99792.41
2022-12-18T15:12:34.072Z,99794.97
2022-12-18T15:15:01.156Z,99793.09
2022-12-18T15:17:28.190Z,99800.56
2022-12-18T15:20:03.005Z,99794.97
2022-12-18T15:22:38.938Z,99791.41
2022-12-18T15:25:33.214Z,99793.28
2022-12-18T15:27:59.882Z,99788.03
2022-12-18T15:30:27.134Z,99791.78
2022-12-18T15:33:14.167Z,99780.09
2022-12-18T15:35:46.633Z,99788.41
2022-12-18T15:38:13.950Z,99779.81
2022-12-18T15:40:40.792Z,99766.91
2022-12-18T15:43:36.510Z,99757.94
2022-12-18T15:46:17.808Z,99761.66
2022-12-18T15:48:49.284Z,99767.63
2022-12-18T15:51:25.583Z,99759.41
2022-12-18T15:53:55.571Z,99747.41
2022-12-18T15:56:41.342Z,99743.59
2022-12-18T15:59:13.305Z,99745.91
2022-12-18T16:01:42.803Z,99728.16
2022-12-18T16:04:13.074Z,99715.16
2022-12-18T16:07:12.561Z,99709.94
2022-12-18T16:09:27.139Z,99702.00
2022-12-18T16:11:54.218Z,99699.09
2022-12-18T16:14:29.272Z,99698.72
2022-12-18T16:17:02.647Z,99688.00
2022-12-18T16:19:30.264Z,99693.53
2022-12-18T16:21:58.795Z,99698.88
2022-12-18T16:24:27.964Z,99696.16
2022-12-18T16:26:55.675Z,99691.75
2022-12-18T16:29:25.805Z,99690.94
2022-12-18T16:31:53.155Z,99682.81
2022-12-18T16:34:26.050Z,99693.81
2022-12-18T16:37:05.179Z,99674.75
2022-12-18T16:39:36.422Z,99678.28
2022-12-18T16:42:17.425Z,99681.75
2022-12-18T16:44:44.947Z,99669.59
2022-12-18T16:47:14.367Z,99676.78
2022-12-18T16:49:42.298Z,99678.81
2022-12-18T16:52:09.246Z,99677.50
2022-12-18T16:54:36.798Z,99673.28
2022-12-18T16:57:05.456Z,99679.91
2022-12-18T16:59:32.731Z,99670.88
2022-12-18T17:01:59.573Z,99661.38
2022-12-18T17:04:26.774Z,99669.59
2022-12-18T17:06:54.029Z,99669.59
2022-12-18T17:09:30.903Z,99666.41
2022-12-18T17:11:57.641Z,99656.78
2022-12-18T17:14:25.298Z,99659.47
2022-12-18T17:17:19.619Z,99658.84
2022-12-18T17:19:42.311Z,99651.91
2022-12-18T17:22:09.704Z,99659.56
2022-12-18T17:24:36.431Z,99663.31
2022-12-18T17:27:04.468Z,99653.69
2022-12-18T17:29:31.272Z,99658.44
2022-12-18T17:31:58.727Z,99661.13
2022-12-18T17:34:27.517Z,99654.88
2022-12-18T17:36:54.256Z,99655.38
2022-12-18T17:40:20.768Z,99645.81
2022-12-18T17:47:39.466Z,99631.28
2022-12-18T17:51:05.981Z,99634.84
2022-12-18T17:58:24.906Z,99617.19
2022-12-18T18:01:54.393Z,99630.16
2022-12-18T18:05:20.982Z,99626.44
2022-12-18T18:08:48.052Z,99627.28
2022-12-18T18:12:15.230Z,99615.59
2022-12-18T18:14:46.136Z,99607.81
2022-12-18T18:17:16.773Z,99620.53
2022-12-18T18:19:49.503Z,99618.84
2022-12-18T18:22:20.871Z,99605.13
2022-12-18T18:24:54.553Z,99601.38
2022-12-18T18:27:25.364Z,99607.28
2022-12-18T18:29:54.460Z,99609.63
2022-12-18T18:32:23.300Z,99610.25
2022-12-18T18:34:56.120Z,99606.16
2022-12-18T18:37:27.172Z,99596.63
2022-12-18T18:39:56.425Z,99590.38
2022-12-18T18:42:24.637Z,99583.06
2022-12-18T18:44:54.729Z,99561.19
2022-12-18T18:47:24.102Z,99559.25
2022-12-18T18:49:52.338Z,99564.53
2022-12-18T18:52:25.145Z,99566.41
2022-12-18T18:55:12.052Z,99576.69
2022-12-18T18:57:42.715Z,99561.97
2022-12-18T19:00:14.507Z,99564.03
2022-12-18T19:02:46.370Z,99562.81
2022-12-18T19:05:15.460Z,99562.41
2022-12-18T19:07:45.074Z,99552.75
2022-12-18T19:10:12.322Z,99540.00
2022-12-18T19:13:01.699Z,99544.69
2022-12-18T19:15:31.678Z,99549.56
2022-12-18T19:17:59.687Z,99545.31
2022-12-18T19:20:31.496Z,99543.88
2022-12-18T19:23:00.208Z,99558.09
2022-12-18T19:25:38.511Z,99554.81
2022-12-18T19:28:16.422Z,99560.03
2022-12-18T19:30:50.346Z,99555.22
2022-12-18T19:36:24.908Z,99547.50
2022-12-18T19:38:55.167Z,99539.47
2022-12-18T19:41:23.946Z,99537.22
2022-12-18T19:43:55.670Z,99517.56
2022-12-18T19:46:23.721Z,99524.69
2022-12-18T19:48:51.304Z,99508.63
2022-12-18T19:51:24.964Z,99503.59
2022-12-18T19:54:01.241Z,99509.66
2022-12-18T19:56:33.895Z,99499.88
2022-12-18T19:59:04.170Z,99490.03
2022-12-18T20:01:32.367Z,99496.97
2022-12-18T20:04:03.918Z,99501.19
2022-12-18T20:06:45.781Z,99512.31
2022-12-18T20:09:15.173Z,99520.31
2022-12-18T20:11:45.369Z,99481.84
2022-12-18T20:14:14.235Z,99465.97
2022-12-18T20:16:47.959Z,99465.72
2022-12-18T20:19:16.151Z,99449.19
2022-12-18T20:21:45.446Z,99445.84
2022-12-18T20:24:14.649Z,99444.56
2022-12-18T20:26:43.828Z,99433.03
2022-12-18T20:29:11.085Z,99436.16
2022-12-18T20:31:41.389Z,99435.91
2022-12-18T20:34:09.537Z,99431.31
2022-12-18T20:36:40.382Z,99433.78
2022-12-18T20:39:14.425Z,99421.00
2022-12-18T20:41:42.842Z,99417.84
2022-12-18T20:44:21.991Z,99418.44
2022-12-18T20:46:57.371Z,99427.22
2022-12-18T20:49:32.203Z,99420.28
2022-12-18T20:52:03.238Z,99424.25
2022-12-18T20:54:34.512Z,99427.97
2022-12-18T20:57:06.340Z,99434.28
2022-12-18T20:59:35.199Z,99425.06
2022-12-18T21:02:04.896Z,99437.22
2022-12-18T21:04:35.343Z,99436.19
2022-12-18T21:07:05.191Z,99418.00
2022-12-18T21:09:38.420Z,99434.94
2022-12-18T21:12:34.855Z,99440.78
2022-12-18T21:15:11.040Z,99441.50
2022-12-18T21:17:44.448Z,99438.78
2022-12-18T21:20:17.370Z,99418.34
2022-12-18T21:22:47.689Z,99416.09
2022-12-18T21:25:20.031Z,99411.31
2022-12-18T21:27:50.759Z,99419.91
2022-12-18T21:30:21.827Z,99414.47
2022-12-18T21:32:57.174Z,99418.88
2022-12-18T21:35:26.845Z,99414.25
2022-12-18T21:37:56.606Z,99413.22
2022-12-18T21:40:27.808Z,99410.50
2022-12-18T21:43:17.756Z,99407.38
2022-12-18T21:45:48.383Z,99415.75
2022-12-18T21:48:18.414Z,99423.47
2022-12-18T21:50:48.345Z,99417.84
2022-12-18T21:53:18.000Z,99416.16
2022-12-18T21:55:47.842Z,99424.56
2022-12-18T21:58:15.574Z,99408.25
2022-12-18T22:00:48.884Z,99399.06
2022-12-18T22:03:20.691Z,99395.31
2022-12-18T22:05:53.328Z,99401.97
2022-12-18T22:08:34.695Z,99403.06
2022-12-18T22:11:03.709Z,99415.22
2022-12-18T22:13:32.620Z,99394.13
2022-12-18T22:16:01.889Z,99405.81
2022-12-18T22:18:30.441Z,99406.47
2022-12-18T22:21:07.017Z,99387.03
2022-12-18T22:23:36.520Z,99386.41
2022-12-18T22:26:04.832Z,99369.88
2022-12-18T22:29:30.105Z,99368.44
2022-12-18T22:32:17.087Z,99374.09
2022-12-18T22:35:03.089Z,99376.59
2022-12-18T22:37:32.970Z,99376.41
2022-12-18T22:39:59.998Z,99371.78
2022-12-18T22:42:30.384Z,99375.34
2022-12-18T22:44:57.033Z,99382.44
2022-12-18T22:47:27.997Z,99374.94
2022-12-18T22:49:56.416Z,99365.09
2022-12-18T22:52:23.442Z,99353.59
2022-12-18T22:54:53.531Z,99351.91
2022-12-18T22:57:21.834Z,99334.34
2022-12-18T22:59:49.379Z,99350.66
2022-12-18T23:02:18.125Z,99363.22
2022-12-18T23:04:45.153Z,99364.88
2022-12-18T23:07:12.031Z,99365.31
2022-12-18T23:09:39.821Z,99361.13
2022-12-18T23:12:07.338Z,99360.31
2022-12-18T23:14:34.301Z,99364.50
2022-12-18T23:17:01.054Z,99371.63
2022-12-18T23:19:27.720Z,99371.19
2022-12-18T23:21:57.716Z,99378.31
2022-12-18T23:24:30.850Z,99381.88
2022-12-18T23:26:59.287Z,99366.63
2022-12-18T23:29:25.986Z,99367.66
2022-12-18T23:31:52.997Z,99352.16
2022-12-18T23:34:20.064Z,99365.75
2022-12-18T23:36:49.158Z,99354.47
2022-12-18T23:39:29.315Z,99351.75
2022-12-18T23:41:59.261Z,99356.13
2022-12-18T23:44:26.308Z,99356.34
2022-12-18T23:46:53.191Z,99361.16
2022-12-18T23:49:20.000Z,99360.53
2022-12-18T23:51:47.161Z,99364.91
2022-12-18T23:54:13.769Z,99365.75
2022-12-18T23:56:40.409Z,99364.09
2022-12-18T23:59:07.367Z,99364.91
